Time;durP1;ratioP1;P1;durP2;ratioP2;P2;SDS_P1;SDS_P2;PMS_P1;PMS_P2;Temp;Humidity;BMP_temperature;BMP_pressure;BME280_temperature;BME280_humidity;BME280_pressure;Samples;Min_cycle;Max_cycle;Signal;HPM_P1;HPM_P2
2022/09/18 00:00:57;;;;;;;8.02;1.25;;;11.80;99.90;;;;;;5032071;28;20417;-76
2022/09/18 00:03:23;;;;;;;6.72;0.93;;;11.80;99.90;;;;;;5049721;28;20408;-75
2022/09/18 00:05:49;;;;;;;7.00;0.87;;;11.80;99.90;;;;;;5049356;28;20421;-75
2022/09/18 00:08:14;;;;;;;5.95;0.80;;;11.80;99.90;;;;;;5049938;28;20978;-75
2022/09/18 00:10:42;;;;;;;8.57;0.90;;;11.80;99.90;;;;;;5049869;28;20791;-75
2022/09/18 00:13:08;;;;;;;7.30;0.82;;;11.80;99.90;;;;;;5049614;28;21271;-75
2022/09/18 00:15:34;;;;;;;6.28;0.90;;;11.90;99.90;;;;;;5049843;28;20409;-75
2022/09/18 00:18:00;;;;;;;6.85;0.80;;;11.90;99.50;;;;;;5049738;28;20437;-75
2022/09/18 00:20:26;;;;;;;6.43;0.90;;;12.00;99.10;;;;;;5049286;28;20437;-75
2022/09/18 00:22:51;;;;;;;7.73;0.70;;;12.00;98.90;;;;;;5051153;28;20409;-75
2022/09/18 00:25:17;;;;;;;9.38;1.10;;;12.10;99.00;;;;;;5069461;28;20439;-75
2022/09/18 00:27:43;;;;;;;8.87;1.00;;;12.10;99.10;;;;;;5053888;28;20482;-76
2022/09/18 00:30:09;;;;;;;8.03;0.80;;;12.10;99.20;;;;;;5031396;28;20408;-76
2022/09/18 00:32:35;;;;;;;9.23;1.20;;;12.10;99.30;;;;;;5048705;28;20408;-76
2022/09/18 00:35:00;;;;;;;6.67;1.30;;;12.10;99.50;;;;;;5048731;28;20865;-76
2022/09/18 00:37:27;;;;;;;10.52;1.20;;;12.10;99.60;;;;;;5049266;28;20406;-76
2022/09/18 00:39:52;;;;;;;6.97;0.95;;;12.00;99.90;;;;;;5049238;28;20896;-76
2022/09/18 00:42:19;;;;;;;6.67;1.23;;;12.00;99.80;;;;;;5048918;28;20425;-76
2022/09/18 00:44:48;;;;;;;6.22;0.73;;;12.00;99.90;;;;;;5015005;28;20405;-76
2022/09/18 00:47:37;;;;;;;7.15;0.93;;;11.90;99.90;;;;;;5048858;28;21028;-76
2022/09/18 00:50:06;;;;;;;7.10;1.15;;;11.90;99.90;;;;;;5048257;28;20501;-77
2022/09/18 00:53:15;;;;;;;4.95;0.80;;;11.90;99.90;;;;;;5049018;28;20436;-76
2022/09/18 00:55:41;;;;;;;7.03;0.47;;;11.90;99.90;;;;;;4989366;28;21292;-76
2022/09/18 00:58:08;;;;;;;6.18;0.63;;;11.80;99.90;;;;;;5031300;28;20452;-76
2022/09/18 01:00:34;;;;;;;5.88;0.60;;;11.90;99.70;;;;;;5048672;28;20492;-76
2022/09/18 01:03:00;;;;;;;7.93;0.90;;;11.80;99.90;;;;;;5048894;28;20485;-76
2022/09/18 01:06:04;;;;;;;6.93;0.75;;;11.80;99.60;;;;;;5049391;28;20510;-76
2022/09/18 01:08:36;;;;;;;6.15;1.17;;;11.80;99.90;;;;;;5033044;28;21111;-77
2022/09/18 01:11:20;;;;;;;5.77;0.90;;;11.90;99.90;;;;;;5030907;28;20436;-76
2022/09/18 01:14:12;;;;;;;5.63;0.60;;;11.80;99.90;;;;;;5036254;28;20475;-77
2022/09/18 01:17:04;;;;;;;7.25;1.13;;;11.70;99.90;;;;;;5030859;28;20418;-77
2022/09/18 01:20:00;;;;;;;4.53;0.73;;;11.60;99.90;;;;;;5048418;28;20405;-77
2022/09/18 01:22:45;;;;;;;6.30;1.10;;;11.50;99.90;;;;;;5039456;28;20963;-77
2022/09/18 01:25:29;;;;;;;7.10;0.70;;;11.30;99.90;;;;;;5035786;28;21101;-77
2022/09/18 01:28:23;;;;;;;5.40;0.80;;;11.20;99.90;;;;;;5047570;28;20412;-77
2022/09/18 01:30:55;;;;;;;5.63;0.70;;;11.10;99.90;;;;;;5046864;28;20887;-77
2022/09/18 01:33:50;;;;;;;7.13;0.90;;;11.10;99.90;;;;;;5048507;28;20409;-77
2022/09/18 01:36:18;;;;;;;7.05;0.80;;;11.00;99.90;;;;;;5048005;28;20903;-77
2022/09/18 01:38:56;;;;;;;7.93;1.20;;;10.90;99.90;;;;;;5030528;28;20413;-77
2022/09/18 01:41:27;;;;;;;5.17;0.53;;;10.80;99.90;;;;;;5048404;28;20977;-77
2022/09/18 01:44:00;;;;;;;6.40;0.63;;;10.80;99.90;;;;;;5044949;28;20419;-77
2022/09/18 01:46:27;;;;;;;5.30;0.60;;;10.80;99.90;;;;;;5043964;28;20445;-77
2022/09/18 01:49:06;;;;;;;5.60;0.80;;;10.70;99.90;;;;;;5048188;28;20433;-77
2022/09/18 01:51:42;;;;;;;7.40;0.82;;;10.70;99.90;;;;;;5046067;28;20423;-76
2022/09/18 01:54:18;;;;;;;7.60;1.30;;;10.70;99.90;;;;;;5048129;28;20455;-76
2022/09/18 01:56:56;;;;;;;9.35;1.25;;;10.70;99.90;;;;;;5047419;28;20445;-77
2022/09/18 01:59:28;;;;;;;5.32;0.70;;;10.70;99.90;;;;;;5047836;28;20406;-77
2022/09/18 02:01:57;;;;;;;6.85;0.70;;;10.70;99.90;;;;;;5048616;28;20401;-77
2022/09/18 02:04:31;;;;;;;7.45;0.70;;;10.70;99.90;;;;;;5047772;28;20721;-76
2022/09/18 02:07:07;;;;;;;6.47;0.60;;;10.70;99.90;;;;;;5048670;28;20512;-77
2022/09/18 02:09:33;;;;;;;7.03;1.00;;;10.70;99.90;;;;;;5060906;28;20504;-77
2022/09/18 02:12:00;;;;;;;5.45;0.40;;;10.60;99.90;;;;;;5055258;28;20445;-77
2022/09/18 02:14:32;;;;;;;7.43;1.00;;;10.60;99.90;;;;;;5047685;28;20413;-77
2022/09/18 02:17:05;;;;;;;5.55;0.70;;;10.60;99.90;;;;;;5064630;28;20413;-77
2022/09/18 02:19:50;;;;;;;9.32;0.90;;;10.60;99.90;;;;;;5064200;28;20888;-77
2022/09/18 02:22:20;;;;;;;5.75;0.70;;;10.60;99.90;;;;;;5020898;28;20820;-77
2022/09/18 02:24:49;;;;;;;7.50;0.80;;;10.60;99.90;;;;;;5048330;28;20423;-77
2022/09/18 02:27:16;;;;;;;7.45;0.85;;;10.70;99.90;;;;;;5048245;28;20433;-76
2022/09/18 02:29:44;;;;;;;6.15;0.70;;;10.60;99.90;;;;;;5048181;28;20417;-76
2022/09/18 02:32:10;;;;;;;8.00;0.73;;;10.70;99.90;;;;;;5034962;28;20918;-76
2022/09/18 02:34:36;;;;;;;5.82;0.55;;;10.70;99.90;;;;;;5030331;28;20427;-76
2022/09/18 02:37:20;;;;;;;6.85;0.57;;;10.70;99.90;;;;;;5027281;28;20407;-76
2022/09/18 02:40:26;;;;;;;7.18;0.70;;;10.80;99.90;;;;;;5026561;28;20421;-76
2022/09/18 02:43:14;;;;;;;7.35;0.70;;;10.80;99.90;;;;;;5059545;28;20496;-76
2022/09/18 02:46:04;;;;;;;5.40;0.60;;;10.90;99.90;;;;;;5064339;28;20454;-77
2022/09/18 02:48:42;;;;;;;8.88;0.70;;;11.00;99.90;;;;;;5065107;28;21112;-76
2022/09/18 02:51:34;;;;;;;6.63;0.60;;;11.00;99.90;;;;;;5062843;28;20446;-77
2022/09/18 02:54:11;;;;;;;8.25;1.30;;;11.00;99.90;;;;;;5055979;28;20452;-76
2022/09/18 02:56:56;;;;;;;10.85;0.82;;;11.00;99.90;;;;;;5052753;28;20496;-76
2022/09/18 02:59:30;;;;;;;6.13;0.90;;;10.90;99.90;;;;;;5052518;28;20445;-76
2022/09/18 03:01:57;;;;;;;8.63;0.82;;;11.00;99.90;;;;;;5051832;28;20435;-77
2022/09/18 03:04:25;;;;;;;9.95;0.90;;;10.90;99.90;;;;;;5061217;28;20424;-77
2022/09/18 03:06:51;;;;;;;9.10;1.15;;;10.90;99.90;;;;;;5055397;28;20445;-76
2022/09/18 03:09:17;;;;;;;7.45;1.05;;;11.00;99.90;;;;;;5053105;28;20459;-76
2022/09/18 03:11:43;;;;;;;4.50;0.52;;;11.00;99.90;;;;;;5035857;28;20417;-76
2022/09/18 03:14:09;;;;;;;10.63;0.97;;;10.90;99.90;;;;;;5052629;28;20482;-75
2022/09/18 03:16:35;;;;;;;5.88;0.50;;;11.00;99.90;;;;;;5052362;28;20402;-75
2022/09/18 03:19:01;;;;;;;6.45;0.82;;;10.90;99.90;;;;;;5052551;28;20493;-76
2022/09/18 03:21:27;;;;;;;7.95;0.90;;;10.90;99.90;;;;;;5062309;28;20872;-76
2022/09/18 03:23:53;;;;;;;7.63;1.00;;;10.90;99.90;;;;;;5054696;28;20501;-76
2022/09/18 03:26:19;;;;;;;7.60;0.70;;;10.90;99.90;;;;;;5050829;28;20433;-76
2022/09/18 03:28:45;;;;;;;9.25;0.95;;;10.80;99.90;;;;;;5032935;28;20412;-76
2022/09/18 03:31:11;;;;;;;8.17;0.80;;;10.80;99.90;;;;;;5050599;28;20398;-77
2022/09/18 03:33:37;;;;;;;9.00;1.48;;;10.80;99.90;;;;;;5050690;28;20409;-76
2022/09/18 03:36:07;;;;;;;9.98;0.90;;;10.80;99.90;;;;;;5050629;28;20467;-77
2022/09/18 03:38:33;;;;;;;8.88;1.00;;;10.80;99.90;;;;;;5049928;28;20409;-77
2022/09/18 03:40:59;;;;;;;7.05;1.17;;;10.80;99.90;;;;;;5032702;28;20409;-76
2022/09/18 03:43:26;;;;;;;7.85;1.20;;;10.80;99.90;;;;;;5050200;28;20440;-76
2022/09/18 03:45:51;;;;;;;8.93;1.10;;;10.80;99.90;;;;;;5050231;28;20436;-77
2022/09/18 03:48:19;;;;;;;6.82;0.85;;;10.80;99.90;;;;;;5031823;28;20409;-76
2022/09/18 03:50:47;;;;;;;8.60;0.90;;;10.80;99.90;;;;;;5048817;28;20405;-77
2022/09/18 03:53:12;;;;;;;10.90;1.10;;;10.90;99.90;;;;;;5050135;28;20431;-76
2022/09/18 03:55:38;;;;;;;8.73;1.00;;;10.90;99.90;;;;;;5049863;28;20903;-76
2022/09/18 03:58:04;;;;;;;7.03;0.87;;;10.90;99.90;;;;;;5038825;28;20397;-77
2022/09/18 04:00:30;;;;;;;7.38;0.70;;;10.90;99.90;;;;;;5061790;28;20400;-77
2022/09/18 04:02:55;;;;;;;6.60;1.20;;;10.90;99.90;;;;;;5052251;28;20775;-76
2022/09/18 04:05:21;;;;;;;7.50;1.17;;;11.00;99.90;;;;;;5049808;28;20458;-77
2022/09/18 04:07:47;;;;;;;8.57;0.73;;;11.00;99.90;;;;;;5049730;28;20458;-77
2022/09/18 04:10:13;;;;;;;10.27;0.90;;;11.00;99.90;;;;;;5049141;28;20528;-77
2022/09/18 04:12:38;;;;;;;7.03;0.65;;;11.00;99.90;;;;;;5049822;28;20876;-77
2022/09/18 04:15:04;;;;;;;9.73;1.50;;;11.00;99.90;;;;;;5059130;28;20775;-77
2022/09/18 04:17:30;;;;;;;7.00;0.90;;;11.00;99.90;;;;;;5048791;28;20512;-77
2022/09/18 04:19:55;;;;;;;7.13;0.70;;;11.00;99.90;;;;;;5049171;28;20401;-77
2022/09/18 04:22:21;;;;;;;8.87;1.10;;;11.00;99.90;;;;;;5043781;28;20901;-77
2022/09/18 04:24:49;;;;;;;7.85;1.17;;;11.00;99.90;;;;;;5049005;28;20402;-77
2022/09/18 04:27:15;;;;;;;7.47;0.68;;;11.00;99.90;;;;;;5049883;28;20404;-77
2022/09/18 04:29:40;;;;;;;9.55;1.13;;;11.00;99.90;;;;;;5049398;28;20393;-77
2022/09/18 04:32:06;;;;;;;8.90;0.60;;;11.00;99.90;;;;;;5031532;28;21275;-77
2022/09/18 04:34:32;;;;;;;7.87;0.60;;;11.10;99.90;;;;;;5049000;28;20456;-77
2022/09/18 04:36:58;;;;;;;9.10;0.63;;;11.00;99.90;;;;;;5049815;28;20767;-77
2022/09/18 04:39:23;;;;;;;4.13;0.50;;;11.00;99.90;;;;;;5044354;28;20549;-77
2022/09/18 04:41:49;;;;;;;3.67;0.50;;;11.00;99.90;;;;;;5049527;28;20492;-77
2022/09/18 04:44:15;;;;;;;4.70;0.47;;;11.00;99.90;;;;;;5049328;28;20755;-77
2022/09/18 04:46:40;;;;;;;4.90;0.40;;;11.00;99.90;;;;;;5030939;28;20437;-77
2022/09/18 04:49:06;;;;;;;4.18;0.30;;;11.00;99.90;;;;;;5049126;28;20393;-77
2022/09/18 04:51:32;;;;;;;4.13;0.30;;;11.00;99.90;;;;;;5043781;28;20496;-77
2022/09/18 04:53:58;;;;;;;4.30;0.33;;;11.00;99.90;;;;;;5048748;28;20516;-77
2022/09/18 04:56:23;;;;;;;3.05;0.20;;;10.90;99.90;;;;;;5030657;28;20488;-77
2022/09/18 04:58:50;;;;;;;3.83;0.40;;;10.90;99.90;;;;;;5049052;28;20401;-76
2022/09/18 05:01:15;;;;;;;1.70;0.10;;;10.80;99.90;;;;;;5030789;28;21179;-76
2022/09/18 05:03:41;;;;;;;3.53;0.50;;;10.80;99.90;;;;;;5027991;28;20490;-76
2022/09/18 05:06:07;;;;;;;4.18;0.45;;;10.80;99.90;;;;;;5047824;28;20927;-75
2022/09/18 05:08:33;;;;;;;3.07;0.20;;;10.80;99.90;;;;;;5048874;28;20412;-75
2022/09/18 05:11:00;;;;;;;5.40;0.50;;;10.80;99.90;;;;;;5047882;28;20415;-76
2022/09/18 05:13:25;;;;;;;4.60;0.50;;;10.80;99.90;;;;;;5030772;28;20444;-75
2022/09/18 05:15:55;;;;;;;5.03;0.40;;;10.80;99.90;;;;;;5048192;28;20502;-76
2022/09/18 05:18:21;;;;;;;3.83;0.30;;;10.80;99.90;;;;;;5048107;28;20413;-77
2022/09/18 05:20:46;;;;;;;4.53;0.47;;;10.80;99.90;;;;;;5037412;28;20411;-77
2022/09/18 05:23:13;;;;;;;5.37;0.60;;;10.90;99.90;;;;;;5054328;28;20412;-76
2022/09/18 05:25:40;;;;;;;4.38;0.40;;;10.90;99.90;;;;;;5034315;28;20781;-77
2022/09/18 05:28:06;;;;;;;5.85;0.60;;;11.00;99.90;;;;;;5048123;28;20394;-77
2022/09/18 05:30:31;;;;;;;6.23;0.80;;;11.00;99.90;;;;;;5048587;28;20779;-76
2022/09/18 05:32:58;;;;;;;3.85;0.70;;;11.00;99.90;;;;;;5048219;28;20919;-76
2022/09/18 05:35:26;;;;;;;4.33;0.60;;;11.10;99.90;;;;;;5010653;28;21047;-77
2022/09/18 05:37:53;;;;;;;5.03;0.53;;;11.10;99.90;;;;;;5024432;28;20447;-77
2022/09/18 05:40:22;;;;;;;4.97;0.40;;;11.20;99.90;;;;;;5030181;28;20455;-76
2022/09/18 05:42:49;;;;;;;5.22;0.50;;;11.20;99.90;;;;;;5030111;28;20412;-77
2022/09/18 05:45:15;;;;;;;8.75;1.20;;;11.10;99.90;;;;;;5047980;28;20514;-75
2022/09/18 05:47:41;;;;;;;6.88;0.85;;;11.10;99.90;;;;;;5061019;28;20757;-76
2022/09/18 05:50:08;;;;;;;8.13;0.70;;;11.10;99.90;;;;;;5048058;28;20415;-76
2022/09/18 05:52:34;;;;;;;6.47;0.82;;;11.10;99.90;;;;;;5048826;28;20495;-76
2022/09/18 05:55:01;;;;;;;9.17;1.30;;;11.00;99.90;;;;;;5058404;28;20503;-76
2022/09/18 05:57:27;;;;;;;4.80;0.73;;;11.00;99.90;;;;;;5046551;28;20802;-76
2022/09/18 05:59:52;;;;;;;4.90;0.50;;;11.00;99.90;;;;;;5043029;28;20417;-76
2022/09/18 06:02:18;;;;;;;7.27;1.07;;;11.10;99.90;;;;;;5047325;28;20405;-76
2022/09/18 06:04:44;;;;;;;6.37;0.60;;;11.00;99.90;;;;;;5017467;28;20417;-76
2022/09/18 06:07:11;;;;;;;7.15;0.80;;;11.00;99.90;;;;;;5047786;28;20433;-75
2022/09/18 06:09:38;;;;;;;5.88;0.60;;;11.00;99.90;;;;;;5047714;28;20405;-75
2022/09/18 06:12:04;;;;;;;7.20;0.80;;;11.00;99.90;;;;;;5029921;28;20475;-76
2022/09/18 06:14:29;;;;;;;7.07;0.53;;;11.00;99.90;;;;;;5047281;28;20895;-76
2022/09/18 06:16:55;;;;;;;7.45;0.80;;;11.00;99.90;;;;;;5047827;28;20895;-77
2022/09/18 06:19:21;;;;;;;6.93;0.80;;;11.00;99.90;;;;;;5029504;28;20422;-77
2022/09/18 06:21:46;;;;;;;5.65;0.60;;;11.10;99.90;;;;;;5031047;28;20419;-76
2022/09/18 06:24:12;;;;;;;8.00;0.90;;;11.10;99.90;;;;;;5051831;28;20779;-77
2022/09/18 06:26:38;;;;;;;8.13;0.85;;;11.10;99.90;;;;;;5045163;28;20463;-77
2022/09/18 06:29:03;;;;;;;6.63;0.83;;;11.10;99.90;;;;;;5053597;28;20432;-76
2022/09/18 06:31:29;;;;;;;8.10;0.75;;;11.10;99.90;;;;;;5033356;28;20512;-76
2022/09/18 06:33:55;;;;;;;7.80;1.20;;;11.10;99.90;;;;;;5051814;28;20402;-76
2022/09/18 06:36:20;;;;;;;9.02;1.30;;;11.10;99.90;;;;;;5055311;28;20408;-77
2022/09/18 06:38:49;;;;;;;11.73;0.98;;;11.10;99.90;;;;;;5060204;28;20925;-77
2022/09/18 06:41:15;;;;;;;7.80;0.60;;;11.00;99.90;;;;;;5051482;28;20485;-77
2022/09/18 06:43:41;;;;;;;8.02;0.90;;;11.00;99.90;;;;;;5045507;28;20515;-77
2022/09/18 06:46:09;;;;;;;7.45;0.98;;;11.00;99.90;;;;;;5032141;28;20649;-77
2022/09/18 06:48:34;;;;;;;7.97;0.82;;;11.00;99.90;;;;;;5050274;28;20436;-77
2022/09/18 06:51:00;;;;;;;12.53;1.90;;;11.00;99.90;;;;;;5049646;28;20456;-77
2022/09/18 06:53:26;;;;;;;13.50;1.00;;;11.00;99.90;;;;;;5045669;28;20907;-77
2022/09/18 06:55:58;;;;;;;9.93;1.30;;;11.00;99.90;;;;;;5032502;28;20467;-78
2022/09/18 06:58:23;;;;;;;9.77;1.27;;;11.00;99.90;;;;;;5048612;28;20409;-77
2022/09/18 07:00:49;;;;;;;10.23;1.17;;;11.00;99.90;;;;;;5049188;28;20749;-77
2022/09/18 07:03:15;;;;;;;10.20;1.23;;;11.00;99.90;;;;;;5053015;28;20476;-77
2022/09/18 07:05:44;;;;;;;6.93;0.70;;;11.10;99.90;;;;;;5048894;28;20472;-76
2022/09/18 07:08:10;;;;;;;8.82;0.88;;;11.10;99.90;;;;;;5050382;28;20453;-77
2022/09/18 07:10:35;;;;;;;6.65;0.85;;;11.10;99.90;;;;;;5049784;28;20440;-76
2022/09/18 07:13:01;;;;;;;7.47;0.50;;;11.10;99.90;;;;;;5032113;28;20464;-77
2022/09/18 07:15:28;;;;;;;5.50;0.70;;;11.10;99.90;;;;;;5012639;28;20754;-76
2022/09/18 07:18:01;;;;;;;5.75;0.40;;;11.10;99.90;;;;;;5029404;28;20399;-77
2022/09/18 07:20:28;;;;;;;7.20;0.70;;;11.10;99.90;;;;;;5027403;28;20465;-76
2022/09/18 07:22:56;;;;;;;8.50;0.70;;;11.00;99.90;;;;;;5028764;28;20490;-77
2022/09/18 07:25:22;;;;;;;6.10;0.60;;;11.00;99.90;;;;;;5049145;28;20432;-77
2022/09/18 07:27:48;;;;;;;7.45;1.00;;;11.10;99.90;;;;;;5045448;28;20962;-76
2022/09/18 07:30:14;;;;;;;6.20;0.52;;;11.10;99.90;;;;;;5049533;28;20496;-77
2022/09/18 07:32:40;;;;;;;10.43;0.90;;;11.00;99.90;;;;;;5031423;28;20413;-77
2022/09/18 07:35:06;;;;;;;6.10;0.90;;;11.00;99.90;;;;;;5044787;28;20753;-76
2022/09/18 07:37:32;;;;;;;7.80;0.63;;;11.00;99.90;;;;;;5049161;28;20410;-76
2022/09/18 07:39:58;;;;;;;8.35;0.70;;;11.10;99.90;;;;;;5049989;28;20787;-76
2022/09/18 07:42:25;;;;;;;7.43;1.30;;;11.10;99.90;;;;;;5050383;28;20492;-76
2022/09/18 07:44:50;;;;;;;8.65;0.70;;;11.10;99.90;;;;;;5050579;28;20409;-76
2022/09/18 07:47:16;;;;;;;7.97;1.00;;;11.10;99.90;;;;;;5050441;28;20792;-76
2022/09/18 07:49:42;;;;;;;8.10;0.70;;;11.00;99.90;;;;;;5032428;28;20830;-76
2022/09/18 07:52:08;;;;;;;7.45;0.98;;;11.00;99.90;;;;;;5032851;28;20432;-75
2022/09/18 07:54:34;;;;;;;9.90;0.82;;;11.10;99.90;;;;;;5035376;28;20446;-76
2022/09/18 07:57:00;;;;;;;7.60;0.85;;;11.10;99.90;;;;;;5050360;28;20428;-75
2022/09/18 07:59:25;;;;;;;7.37;0.97;;;11.10;99.90;;;;;;5031871;28;20410;-76
2022/09/18 08:01:54;;;;;;;11.07;0.88;;;11.10;99.90;;;;;;5050405;28;20422;-75
2022/09/18 08:04:23;;;;;;;7.00;0.70;;;11.10;99.90;;;;;;5050002;28;20488;-75
2022/09/18 08:06:56;;;;;;;8.40;1.00;;;11.10;99.90;;;;;;5049853;28;20453;-75
2022/09/18 08:09:22;;;;;;;7.43;0.80;;;11.10;99.90;;;;;;5050014;28;20417;-76
2022/09/18 08:11:52;;;;;;;7.38;0.60;;;11.10;99.90;;;;;;5053637;28;20409;-76
2022/09/18 08:14:18;;;;;;;6.27;0.70;;;11.20;99.90;;;;;;5065358;28;20440;-75
2022/09/18 08:16:44;;;;;;;5.65;0.60;;;11.20;99.90;;;;;;5065237;28;20434;-76
2022/09/18 08:19:10;;;;;;;8.98;0.70;;;11.30;99.90;;;;;;5066264;28;20400;-76
2022/09/18 08:21:36;;;;;;;7.60;0.70;;;11.30;99.90;;;;;;5068927;28;21011;-76
2022/09/18 08:24:02;;;;;;;8.75;1.00;;;11.30;99.90;;;;;;5050808;28;20508;-76
2022/09/18 08:26:27;;;;;;;6.87;0.90;;;11.30;99.90;;;;;;5050355;28;20516;-77
2022/09/18 08:28:53;;;;;;;6.68;0.73;;;11.30;99.90;;;;;;5032803;28;20485;-76
2022/09/18 08:31:19;;;;;;;7.20;0.80;;;11.40;99.90;;;;;;5015017;28;20405;-76
2022/09/18 08:33:44;;;;;;;7.40;0.90;;;11.40;99.90;;;;;;5050468;28;20455;-77
2022/09/18 08:36:10;;;;;;;9.50;1.17;;;11.30;99.90;;;;;;5050403;28;20398;-75
2022/09/18 08:38:35;;;;;;;4.55;0.40;;;11.30;99.90;;;;;;5058784;28;20395;-76
2022/09/18 08:41:26;;;;;;;6.23;0.60;;;11.40;99.90;;;;;;5051398;28;20421;-76
2022/09/18 08:44:17;;;;;;;4.78;0.70;;;11.30;99.90;;;;;;5051110;28;20521;-76
2022/09/18 08:47:06;;;;;;;5.13;0.50;;;11.30;99.90;;;;;;5058700;28;20460;-76
2022/09/18 08:49:36;;;;;;;5.32;0.57;;;11.30;99.90;;;;;;5046052;28;20425;-76
2022/09/18 08:52:05;;;;;;;4.40;0.50;;;11.30;99.90;;;;;;5056483;28;20445;-77
2022/09/18 08:54:49;;;;;;;4.65;0.55;;;11.30;99.90;;;;;;5047462;28;20445;-77
2022/09/18 08:57:20;;;;;;;4.53;0.65;;;11.30;99.90;;;;;;5050972;28;20442;-76
2022/09/18 08:59:57;;;;;;;3.07;0.30;;;11.40;99.90;;;;;;5043776;28;20421;-77
2022/09/18 09:02:40;;;;;;;5.88;0.38;;;11.40;99.90;;;;;;5023435;28;20410;-76
2022/09/18 09:05:12;;;;;;;5.50;0.67;;;11.50;99.90;;;;;;5028204;28;20434;-76
2022/09/18 09:07:52;;;;;;;4.28;0.35;;;11.50;99.90;;;;;;5029044;28;20423;-76
2022/09/18 09:10:41;;;;;;;4.10;0.60;;;11.60;99.90;;;;;;5044330;28;20781;-76
2022/09/18 09:13:39;;;;;;;6.68;0.47;;;11.70;99.90;;;;;;5029623;28;20542;-76
2022/09/18 09:16:17;;;;;;;4.37;0.40;;;11.80;99.90;;;;;;5043982;28;20482;-76
2022/09/18 09:18:57;;;;;;;3.17;0.30;;;11.80;99.90;;;;;;5028718;28;20413;-76
2022/09/18 09:21:55;;;;;;;6.55;0.60;;;11.80;99.90;;;;;;5027780;28;20798;-77
2022/09/18 09:24:27;;;;;;;5.20;0.50;;;11.80;99.90;;;;;;5027153;28;20422;-77
2022/09/18 09:26:55;;;;;;;4.80;0.60;;;11.90;99.90;;;;;;5026884;28;20881;-77
2022/09/18 09:29:28;;;;;;;5.47;0.75;;;11.90;99.90;;;;;;5028805;28;20551;-77
2022/09/18 09:32:03;;;;;;;7.30;1.20;;;11.90;99.90;;;;;;5028510;28;20399;-77
2022/09/18 09:34:39;;;;;;;8.88;0.93;;;12.00;99.90;;;;;;5028124;28;20438;-77
2022/09/18 09:37:16;;;;;;;7.97;0.85;;;12.10;99.90;;;;;;5026683;28;20451;-77
2022/09/18 09:39:51;;;;;;;6.13;0.73;;;12.20;99.90;;;;;;5027843;28;20419;-77
2022/09/18 09:42:30;;;;;;;9.18;0.90;;;12.20;99.90;;;;;;5026768;28;20914;-77
2022/09/18 09:45:25;;;;;;;5.35;0.52;;;12.40;99.90;;;;;;5027920;28;20485;-77
2022/09/18 09:48:12;;;;;;;6.57;0.50;;;12.50;99.90;;;;;;5017970;28;20464;-77
2022/09/18 09:51:08;;;;;;;5.20;0.47;;;12.70;99.90;;;;;;5027600;28;20415;-78
2022/09/18 09:53:35;;;;;;;5.25;0.68;;;12.80;99.90;;;;;;5027276;28;20473;-77
2022/09/18 09:56:29;;;;;;;5.65;0.47;;;13.00;99.90;;;;;;5027942;28;20995;-77
2022/09/18 09:58:58;;;;;;;5.90;0.75;;;13.20;99.90;;;;;;5015490;28;20438;-77
2022/09/18 10:01:29;;;;;;;4.07;0.50;;;13.40;99.90;;;;;;5026462;28;20453;-78
2022/09/18 10:04:31;;;;;;;5.70;0.40;;;13.50;99.90;;;;;;5025341;28;20419;-77
2022/09/18 10:07:09;;;;;;;8.65;0.90;;;13.70;99.90;;;;;;5018237;28;20923;-77
2022/09/18 10:09:39;;;;;;;4.82;0.60;;;13.80;99.90;;;;;;5016451;28;20441;-77
2022/09/18 10:12:17;;;;;;;7.45;0.50;;;13.90;99.90;;;;;;5006936;28;20507;-77
2022/09/18 10:14:46;;;;;;;5.90;0.68;;;14.00;99.90;;;;;;5006146;28;20417;-77
2022/09/18 10:17:14;;;;;;;4.30;0.60;;;14.10;99.90;;;;;;4997732;28;20554;-76
2022/09/18 10:19:42;;;;;;;7.13;0.60;;;14.10;99.90;;;;;;5006777;28;20409;-76
2022/09/18 10:22:14;;;;;;;6.70;0.52;;;14.20;99.90;;;;;;5007977;28;20907;-77
2022/09/18 10:25:02;;;;;;;4.82;0.40;;;14.30;99.90;;;;;;5007939;28;20883;-76
2022/09/18 10:27:28;;;;;;;4.97;0.40;;;14.40;99.90;;;;;;5008034;28;20756;-76
2022/09/18 10:29:54;;;;;;;8.20;1.30;;;14.60;99.90;;;;;;5008413;28;20420;-77
2022/09/18 10:32:34;;;;;;;5.67;0.50;;;14.70;99.90;;;;;;5018253;28;21027;-77
2022/09/18 10:35:00;;;;;;;6.75;0.73;;;14.70;99.90;;;;;;5007948;28;20519;-76
2022/09/18 10:37:28;;;;;;;7.18;0.80;;;14.80;99.90;;;;;;5007576;28;20543;-76
2022/09/18 10:40:00;;;;;;;7.13;0.60;;;14.80;99.90;;;;;;5008160;28;20405;-77
2022/09/18 10:42:36;;;;;;;5.03;0.50;;;14.90;99.90;;;;;;5001711;28;20494;-77
2022/09/18 10:45:19;;;;;;;5.23;0.50;;;15.00;99.90;;;;;;5025261;28;20411;-77
2022/09/18 10:47:45;;;;;;;7.43;0.73;;;15.00;99.90;;;;;;5018928;28;20415;-77
2022/09/18 10:50:11;;;;;;;5.15;0.40;;;15.10;99.90;;;;;;5006828;28;20436;-76
2022/09/18 10:52:43;;;;;;;4.43;0.33;;;15.10;99.90;;;;;;4999675;28;20435;-75
2022/09/18 10:55:12;;;;;;;4.00;0.30;;;15.10;99.90;;;;;;5005035;28;20451;-76
2022/09/18 10:57:37;;;;;;;2.00;0.25;;;15.20;99.90;;;;;;5006582;28;20752;-77
2022/09/18 11:00:23;;;;;;;2.50;0.40;;;15.20;99.90;;;;;;5007010;28;20424;-76
2022/09/18 11:02:59;;;;;;;2.20;0.52;;;15.20;99.30;;;;;;4997318;28;20426;-77
2022/09/18 11:05:35;;;;;;;3.60;0.40;;;15.20;99.20;;;;;;5028295;28;20942;-76
2022/09/18 11:08:06;;;;;;;4.18;0.43;;;15.40;99.90;;;;;;5024530;28;20495;-77
2022/09/18 11:10:33;;;;;;;2.25;0.25;;;15.90;99.90;;;;;;5049686;28;20467;-76
2022/09/18 11:13:01;;;;;;;3.97;0.30;;;16.40;98.40;;;;;;5049814;28;20465;-76
2022/09/18 11:15:31;;;;;;;5.90;0.50;;;16.90;98.00;;;;;;5044159;28;20433;-74
2022/09/18 11:18:01;;;;;;;6.00;0.50;;;17.30;96.70;;;;;;5049842;28;20415;-75
2022/09/18 11:20:34;;;;;;;5.13;0.63;;;17.40;95.50;;;;;;5032841;28;20413;-75
2022/09/18 11:23:35;;;;;;;5.40;0.50;;;17.30;95.60;;;;;;5049325;28;20899;-75
2022/09/18 11:26:27;;;;;;;4.55;0.60;;;17.20;95.30;;;;;;5049478;28;20429;-74
2022/09/18 11:29:02;;;;;;;5.13;0.40;;;17.20;95.90;;;;;;5051614;28;20409;-75
2022/09/18 11:31:57;;;;;;;7.47;0.85;;;17.30;96.00;;;;;;5049421;28;20468;-75
2022/09/18 11:34:26;;;;;;;4.07;0.50;;;17.40;95.20;;;;;;5037956;28;20421;-75
2022/09/18 11:36:57;;;;;;;5.70;0.50;;;17.60;95.00;;;;;;5050375;28;20879;-75
2022/09/18 11:39:28;;;;;;;5.65;0.70;;;17.60;94.40;;;;;;5032969;28;20441;-76
2022/09/18 11:41:54;;;;;;;6.20;0.65;;;17.30;93.90;;;;;;5050937;28;20428;-75
2022/09/18 11:44:27;;;;;;;6.07;0.95;;;17.10;94.90;;;;;;5039952;28;20430;-75
2022/09/18 11:47:12;;;;;;;4.97;0.60;;;17.20;95.70;;;;;;5026479;28;20434;-74
2022/09/18 11:50:16;;;;;;;6.60;0.50;;;18.10;96.30;;;;;;5048441;28;20551;-74
2022/09/18 11:52:49;;;;;;;7.22;0.55;;;19.00;94.00;;;;;;5010180;28;20760;-74
2022/09/18 11:55:49;;;;;;;6.20;1.05;;;19.80;93.60;;;;;;5052741;28;20830;-74
2022/09/18 11:58:42;;;;;;;7.03;0.80;;;20.60;91.50;;;;;;5009210;28;20563;-75
2022/09/18 12:01:26;;;;;;;7.97;0.90;;;20.50;90.70;;;;;;5041747;28;20412;-75
2022/09/18 12:04:15;;;;;;;7.75;1.40;;;20.70;91.00;;;;;;5047700;28;20546;-74
2022/09/18 12:06:49;;;;;;;4.80;0.50;;;20.50;89.00;;;;;;5048393;28;20425;-74
2022/09/18 12:09:43;;;;;;;4.90;0.65;;;19.60;88.90;;;;;;5043450;28;20431;-74
2022/09/18 12:12:12;;;;;;;7.50;0.50;;;18.70;89.40;;;;;;5040417;28;20808;-74
2022/09/18 12:14:47;;;;;;;4.35;0.70;;;18.30;90.40;;;;;;5048129;28;20449;-75
2022/09/18 12:17:23;;;;;;;6.65;0.77;;;19.00;89.50;;;;;;5047872;28;20422;-73
2022/09/18 12:19:56;;;;;;;6.32;0.55;;;19.70;89.80;;;;;;5055942;28;20415;-74
2022/09/18 12:22:25;;;;;;;3.88;0.55;;;20.20;86.00;;;;;;5048511;28;20408;-74
2022/09/18 12:24:50;;;;;;;5.50;0.63;;;20.40;86.40;;;;;;5057672;28;20443;-74
2022/09/18 12:27:36;;;;;;;5.63;0.80;;;19.90;83.30;;;;;;5067133;28;20558;-74
2022/09/18 12:30:20;;;;;;;6.78;1.30;;;19.20;86.60;;;;;;5030540;28;20932;-75
2022/09/18 12:32:55;;;;;;;5.18;0.70;;;18.60;86.50;;;;;;5018983;28;21154;-74
2022/09/18 12:35:54;;;;;;;6.33;0.73;;;18.30;87.20;;;;;;5049122;28;20445;-74
2022/09/18 12:38:22;;;;;;;6.32;0.70;;;18.60;87.00;;;;;;5048005;28;20432;-75
2022/09/18 12:41:18;;;;;;;6.68;0.70;;;18.80;87.10;;;;;;5048777;28;20946;-75
2022/09/18 12:44:02;;;;;;;4.95;0.60;;;19.00;87.50;;;;;;5049453;28;20476;-75
2022/09/18 12:46:39;;;;;;;6.68;0.63;;;19.00;86.20;;;;;;5049252;28;20488;-75
2022/09/18 12:49:21;;;;;;;5.57;0.63;;;18.40;87.20;;;;;;5047944;28;20440;-75
2022/09/18 12:51:54;;;;;;;8.75;0.90;;;17.80;87.60;;;;;;5049561;28;20421;-75
2022/09/18 12:54:28;;;;;;;5.40;0.87;;;18.00;87.40;;;;;;5049255;28;20401;-75
2022/09/18 12:57:00;;;;;;;5.90;0.90;;;18.10;87.40;;;;;;5049588;28;20745;-75
2022/09/18 12:59:31;;;;;;;6.50;0.70;;;18.10;87.00;;;;;;5048142;28;20432;-76
2022/09/18 13:02:10;;;;;;;7.45;1.63;;;18.00;87.10;;;;;;5048415;28;20559;-74
2022/09/18 13:04:44;;;;;;;8.80;0.80;;;18.20;85.90;;;;;;5050547;28;20421;-74
2022/09/18 13:07:17;;;;;;;7.32;1.00;;;18.10;86.60;;;;;;5058417;28;20433;-75
2022/09/18 13:09:49;;;;;;;7.07;0.60;;;17.80;85.00;;;;;;5047453;28;20518;-75